createdAt,value
2022-11-15T00:00:09.253Z,88.41
2022-11-15T00:02:41.760Z,88.36
2022-11-15T00:05:14.305Z,87.78
2022-11-15T00:07:55.514Z,87.57
2022-11-15T00:10:28.623Z,87.09
2022-11-15T00:13:01.124Z,87.16
2022-11-15T00:15:37.464Z,88.14
2022-11-15T00:18:17.206Z,87.57
2022-11-15T00:20:49.689Z,87.41
2022-11-15T00:23:22.347Z,87.18
2022-11-15T00:25:59.533Z,87.26
2022-11-15T00:28:32.109Z,86.91
2022-11-15T00:31:08.563Z,86.59
2022-11-15T00:33:44.428Z,86.32
2022-11-15T00:36:17.186Z,86.15
2022-11-15T00:38:49.750Z,86.22
2022-11-15T00:41:22.283Z,85.92
2022-11-15T00:43:55.020Z,85.81
2022-11-15T00:46:27.719Z,85.73
2022-11-15T00:49:00.221Z,85.45
2022-11-15T00:51:32.740Z,85.51
2022-11-15T00:54:05.320Z,85.85
2022-11-15T00:56:37.843Z,86.29
2022-11-15T00:59:10.317Z,86.13
2022-11-15T01:01:42.986Z,85.65
2022-11-15T01:04:15.525Z,85.87
2022-11-15T01:06:48.287Z,86.50
2022-11-15T01:09:20.930Z,86.50
2022-11-15T01:11:53.621Z,86.52
2022-11-15T01:14:26.238Z,86.49
2022-11-15T01:16:58.731Z,86.66
2022-11-15T01:19:31.324Z,86.47
2022-11-15T01:22:03.828Z,86.21
2022-11-15T01:24:38.779Z,87.05
2022-11-15T01:27:11.451Z,86.70
2022-11-15T01:29:43.948Z,87.41
2022-11-15T01:32:16.604Z,87.46
2022-11-15T01:34:49.148Z,87.21
2022-11-15T01:37:21.661Z,87.69
2022-11-15T01:39:54.214Z,87.89
2022-11-15T01:42:26.881Z,88.15
2022-11-15T01:44:59.420Z,88.36
2022-11-15T01:47:41.477Z,88.54
2022-11-15T01:50:22.591Z,88.17
2022-11-15T01:52:56.374Z,88.65
2022-11-15T01:55:29.671Z,88.87
2022-11-15T01:58:06.454Z,88.37
2022-11-15T02:00:39.130Z,88.04
2022-11-15T02:03:11.934Z,88.48
2022-11-15T02:05:45.431Z,88.30
2022-11-15T02:08:20.726Z,87.83
2022-11-15T02:10:53.324Z,87.76
2022-11-15T02:13:26.255Z,87.26
2022-11-15T02:16:23.200Z,88.17
2022-11-15T02:19:35.514Z,88.05
2022-11-15T02:22:49.020Z,88.06
2022-11-15T02:25:32.546Z,87.61
2022-11-15T02:28:31.923Z,88.05
2022-11-15T02:31:29.298Z,87.56
2022-11-15T02:34:30.292Z,87.96
2022-11-15T02:37:39.700Z,87.95
2022-11-15T02:40:45.709Z,88.09
2022-11-15T02:43:53.191Z,87.81
2022-11-15T02:46:49.382Z,87.89
2022-11-15T02:49:25.961Z,87.79
2022-11-15T02:51:58.520Z,87.92
2022-11-15T02:54:34.408Z,87.66
2022-11-15T02:57:20.236Z,87.83
2022-11-15T03:00:01.748Z,87.90
2022-11-15T03:03:23.106Z,87.33
2022-11-15T03:06:09.539Z,87.64
2022-11-15T03:09:16.040Z,87.45
2022-11-15T03:12:01.382Z,87.79
2022-11-15T03:14:46.273Z,87.72
2022-11-15T03:17:31.468Z,88.11
2022-11-15T03:20:07.508Z,88.35
2022-11-15T03:22:45.637Z,87.49
2022-11-15T03:25:23.831Z,87.29
2022-11-15T03:28:04.979Z,87.85
2022-11-15T03:30:40.856Z,87.51
2022-11-15T03:33:13.831Z,87.06
2022-11-15T03:35:49.401Z,86.82
2022-11-15T03:38:27.360Z,87.48
2022-11-15T03:41:05.782Z,87.14
2022-11-15T03:43:50.947Z,87.38
2022-11-15T03:47:04.241Z,87.18
2022-11-15T03:49:45.113Z,87.09
2022-11-15T03:52:22.838Z,88.15
2022-11-15T03:54:57.572Z,87.83
2022-11-15T03:57:30.200Z,87.43
2022-11-15T04:00:05.392Z,87.64
2022-11-15T04:02:38.240Z,87.83
2022-11-15T04:05:10.855Z,87.91
2022-11-15T04:07:43.453Z,88.29
2022-11-15T04:10:17.227Z,87.87
2022-11-15T04:12:50.168Z,87.54
2022-11-15T04:15:24.773Z,87.93
2022-11-15T04:17:58.618Z,87.29
2022-11-15T04:20:51.180Z,88.19
2022-11-15T04:23:43.120Z,88.12
2022-11-15T04:26:21.727Z,88.02
2022-11-15T04:29:13.356Z,88.10
2022-11-15T04:31:45.820Z,87.78
2022-11-15T04:34:18.347Z,87.78
2022-11-15T04:37:09.749Z,87.74
2022-11-15T04:39:44.138Z,87.62
2022-11-15T04:42:16.604Z,87.26
2022-11-15T04:44:49.080Z,87.37
2022-11-15T04:47:21.601Z,87.81
2022-11-15T04:49:54.165Z,87.54
2022-11-15T04:52:26.681Z,87.15
2022-11-15T04:55:01.401Z,88.19
2022-11-15T04:57:38.797Z,88.08
2022-11-15T05:00:15.785Z,87.76
2022-11-15T05:03:06.815Z,87.53
2022-11-15T05:05:39.468Z,87.53
2022-11-15T05:08:11.997Z,87.46
2022-11-15T05:10:44.496Z,87.66
2022-11-15T05:13:17.348Z,87.97
2022-11-15T05:15:50.075Z,88.10
2022-11-15T05:18:23.878Z,88.17
2022-11-15T05:20:56.811Z,88.44
2022-11-15T05:23:29.676Z,88.04
2022-11-15T05:26:09.177Z,88.10
2022-11-15T05:28:42.192Z,88.57
2022-11-15T05:31:17.396Z,88.25
2022-11-15T05:33:52.628Z,87.86
2022-11-15T05:36:43.466Z,88.43
2022-11-15T05:39:16.136Z,88.30
2022-11-15T05:42:03.354Z,88.63
2022-11-15T05:44:40.698Z,87.84
2022-11-15T05:47:25.337Z,88.48
2022-11-15T05:49:58.764Z,88.28
2022-11-15T05:52:37.969Z,88.35
2022-11-15T05:55:11.113Z,88.48
2022-11-15T05:57:44.062Z,88.61
2022-11-15T06:00:17.157Z,88.56
2022-11-15T06:02:49.865Z,88.80
2022-11-15T06:05:22.401Z,88.65
2022-11-15T06:07:59.973Z,89.15
2022-11-15T06:10:33.871Z,89.36
2022-11-15T06:13:06.842Z,88.54
2022-11-15T06:15:39.285Z,87.99
2022-11-15T06:18:11.774Z,88.25
2022-11-15T06:20:44.341Z,88.53
2022-11-15T06:23:16.956Z,88.42
2022-11-15T06:25:49.512Z,88.48
2022-11-15T06:28:23.060Z,89.08
2022-11-15T06:30:55.592Z,88.68
2022-11-15T06:33:28.137Z,88.37
2022-11-15T06:36:05.895Z,87.93
2022-11-15T06:38:38.414Z,88.25
2022-11-15T06:41:12.955Z,87.50
2022-11-15T06:43:45.471Z,87.31
2022-11-15T06:46:18.053Z,86.95
2022-11-15T06:48:54.605Z,86.40
2022-11-15T06:51:27.120Z,86.56
2022-11-15T06:53:59.737Z,86.71
2022-11-15T06:56:32.372Z,86.24
2022-11-15T06:59:04.903Z,86.51
2022-11-15T07:01:37.484Z,86.55
2022-11-15T07:04:10.054Z,86.50
2022-11-15T07:06:42.536Z,86.82
2022-11-15T07:09:15.979Z,86.48
2022-11-15T07:11:48.468Z,87.41
2022-11-15T07:14:20.976Z,87.10
2022-11-15T07:16:53.697Z,86.32
2022-11-15T07:19:26.181Z,87.61
2022-11-15T07:21:58.669Z,87.31
2022-11-15T07:24:31.171Z,87.07
2022-11-15T07:27:03.793Z,87.16
2022-11-15T07:29:36.412Z,86.84
2022-11-15T07:32:10.308Z,86.56
2022-11-15T07:34:42.897Z,86.81
2022-11-15T07:37:15.522Z,86.74
2022-11-15T07:39:48.066Z,87.12
2022-11-15T07:42:39.446Z,86.91
2022-11-15T07:45:11.930Z,87.07
2022-11-15T07:47:47.985Z,86.74
2022-11-15T07:50:20.755Z,86.30
2022-11-15T07:53:00.551Z,86.56
2022-11-15T07:55:33.116Z,86.41
2022-11-15T07:58:09.283Z,86.42
2022-11-15T08:00:41.755Z,86.38
2022-11-15T08:03:17.729Z,86.60
2022-11-15T08:05:53.454Z,86.64
2022-11-15T08:08:26.003Z,86.26
2022-11-15T08:10:59.642Z,85.90
2022-11-15T08:13:32.548Z,85.66
2022-11-15T08:16:06.546Z,87.22
2022-11-15T08:18:39.179Z,86.59
2022-11-15T08:21:18.630Z,86.28
2022-11-15T08:23:51.144Z,85.82
2022-11-15T08:26:23.824Z,85.67
2022-11-15T08:28:56.463Z,85.67
2022-11-15T08:31:28.992Z,86.32
2022-11-15T08:34:02.178Z,86.12
2022-11-15T08:36:43.007Z,86.51
2022-11-15T08:39:18.354Z,86.06
2022-11-15T08:41:50.901Z,85.42
2022-11-15T08:44:24.913Z,86.28
2022-11-15T08:46:57.559Z,85.87
2022-11-15T08:49:30.079Z,85.87
2022-11-15T08:52:02.591Z,85.71
2022-11-15T08:54:35.120Z,85.42
2022-11-15T08:57:08.106Z,84.60
2022-11-15T08:59:40.628Z,84.73
2022-11-15T09:02:15.561Z,84.54
2022-11-15T09:04:49.045Z,83.88
2022-11-15T09:07:23.748Z,83.55
2022-11-15T09:09:56.514Z,82.98
2022-11-15T09:12:32.458Z,83.56
2022-11-15T09:15:07.366Z,82.25
2022-11-15T09:17:39.853Z,82.26
2022-11-15T09:20:12.711Z,81.17
2022-11-15T09:22:47.357Z,81.54
2022-11-15T09:25:19.893Z,81.10
2022-11-15T09:28:00.136Z,80.63
2022-11-15T09:30:37.040Z,80.63
2022-11-15T09:33:12.325Z,79.75
2022-11-15T09:35:44.983Z,79.51
2022-11-15T09:38:21.697Z,78.96
2022-11-15T09:41:12.581Z,78.91
2022-11-15T09:43:58.184Z,78.37
2022-11-15T09:47:02.368Z,77.63
2022-11-15T09:49:35.040Z,77.76
2022-11-15T09:52:14.299Z,77.11
2022-11-15T09:54:53.796Z,75.71
2022-11-15T09:57:46.061Z,74.19
2022-11-15T10:00:47.579Z,73.93
2022-11-15T10:03:37.032Z,73.24
2022-11-15T10:06:24.307Z,72.88
2022-11-15T10:09:08.307Z,72.72
2022-11-15T10:11:44.760Z,72.78
2022-11-15T10:14:26.371Z,72.76
2022-11-15T10:17:32.822Z,72.62
2022-11-15T10:20:21.458Z,71.98
2022-11-15T10:23:01.986Z,71.76
2022-11-15T10:25:35.779Z,71.56
2022-11-15T10:28:28.855Z,70.42
2022-11-15T10:31:02.345Z,69.48
2022-11-15T10:33:40.022Z,68.99
2022-11-15T10:36:12.401Z,69.10
2022-11-15T10:38:50.768Z,69.29
2022-11-15T10:41:45.971Z,68.22
2022-11-15T10:44:31.500Z,67.53
2022-11-15T10:47:03.930Z,67.77
2022-11-15T10:49:36.678Z,67.87
2022-11-15T10:52:21.215Z,68.33
2022-11-15T10:55:08.252Z,68.42
2022-11-15T10:57:49.027Z,67.57
2022-11-15T11:00:21.435Z,67.18
2022-11-15T11:02:56.949Z,67.30
2022-11-15T11:05:42.271Z,67.02
2022-11-15T11:08:15.411Z,67.08
2022-11-15T11:11:03.593Z,67.28
2022-11-15T11:13:40.933Z,66.96
2022-11-15T11:16:23.200Z,67.13
2022-11-15T11:19:19.369Z,66.75
2022-11-15T11:22:30.776Z,66.89
2022-11-15T11:25:41.934Z,66.83
2022-11-15T11:28:37.654Z,67.09
2022-11-15T11:31:42.515Z,66.10
2022-11-15T11:34:20.995Z,65.37
2022-11-15T11:37:06.192Z,65.47
2022-11-15T11:40:30.116Z,64.98
2022-11-15T11:43:11.577Z,64.95
2022-11-15T11:46:23.457Z,64.07
2022-11-15T11:49:39.578Z,64.66
2022-11-15T11:52:28.608Z,63.44
2022-11-15T11:55:39.542Z,63.05
2022-11-15T11:58:34.876Z,62.72
2022-11-15T12:01:44.528Z,62.81
2022-11-15T12:04:36.441Z,62.44
2022-11-15T12:07:20.291Z,61.89
2022-11-15T12:10:03.917Z,61.97
2022-11-15T12:12:50.011Z,61.75
2022-11-15T12:15:51.171Z,61.30
2022-11-15T12:18:23.748Z,61.31
2022-11-15T12:21:44.456Z,61.58
2022-11-15T12:24:30.896Z,60.93
2022-11-15T12:27:20.524Z,60.93
2022-11-15T12:30:02.084Z,61.10
2022-11-15T12:32:49.266Z,59.64
2022-11-15T12:35:43.599Z,59.02
2022-11-15T12:39:03.649Z,59.81
2022-11-15T12:42:04.667Z,58.89
2022-11-15T12:44:38.452Z,59.55
2022-11-15T12:47:10.857Z,58.27
2022-11-15T12:49:46.465Z,58.28
2022-11-15T12:52:19.818Z,59.70
2022-11-15T12:54:59.545Z,58.91
2022-11-15T12:57:37.196Z,58.84
2022-11-15T13:00:15.609Z,58.99
2022-11-15T13:02:49.399Z,59.41
2022-11-15T13:05:44.693Z,59.21
2022-11-15T13:08:41.817Z,59.63
2022-11-15T13:11:52.341Z,59.44
2022-11-15T13:14:55.455Z,59.17
2022-11-15T13:17:36.135Z,59.75
2022-11-15T13:20:08.483Z,60.15
2022-11-15T13:22:55.648Z,59.44
2022-11-15T13:25:37.200Z,59.04
2022-11-15T13:28:15.594Z,58.29
2022-11-15T13:30:47.991Z,59.16
2022-11-15T13:33:35.882Z,58.80
2022-11-15T13:36:20.956Z,58.58
2022-11-15T13:39:13.228Z,58.89
2022-11-15T13:41:50.266Z,58.61
2022-11-15T13:44:33.322Z,59.07
2022-11-15T13:47:13.541Z,58.47
2022-11-15T13:49:46.047Z,59.03
2022-11-15T13:52:18.721Z,59.45
2022-11-15T13:55:14.218Z,59.55
2022-11-15T13:57:52.546Z,59.45
2022-11-15T14:00:45.760Z,59.86
2022-11-15T14:03:18.266Z,60.43
2022-11-15T14:06:16.845Z,60.14
2022-11-15T14:09:26.339Z,60.44
2022-11-15T14:11:59.116Z,60.29
2022-11-15T14:14:31.747Z,60.81
2022-11-15T14:17:04.311Z,60.62
2022-11-15T14:19:40.466Z,61.34
2022-11-15T14:22:17.142Z,61.15
2022-11-15T14:25:16.009Z,61.11
2022-11-15T14:28:19.466Z,61.20
2022-11-15T14:30:56.156Z,60.86
2022-11-15T14:33:40.060Z,61.54
2022-11-15T14:36:20.811Z,61.79
2022-11-15T14:38:55.122Z,61.98
2022-11-15T14:41:27.821Z,62.43
2022-11-15T14:44:00.700Z,63.10
2022-11-15T14:46:33.254Z,62.79
2022-11-15T14:49:05.810Z,63.19
2022-11-15T14:51:38.278Z,63.53
2022-11-15T14:54:11.676Z,63.49
2022-11-15T14:56:44.157Z,64.01
2022-11-15T14:59:16.625Z,63.44
2022-11-15T15:01:49.089Z,64.09
2022-11-15T15:04:21.538Z,63.75
2022-11-15T15:06:54.142Z,64.17
2022-11-15T15:09:26.680Z,64.61
2022-11-15T15:12:04.884Z,64.51
2022-11-15T15:14:38.658Z,64.23
2022-11-15T15:17:11.369Z,64.38
2022-11-15T15:19:44.189Z,64.50
2022-11-15T15:22:19.805Z,65.59
2022-11-15T15:24:52.526Z,64.57
2022-11-15T15:27:25.078Z,64.56
2022-11-15T15:29:57.544Z,64.44
2022-11-15T15:32:30.004Z,64.73
2022-11-15T15:35:02.493Z,65.40
2022-11-15T15:37:35.519Z,65.33
2022-11-15T15:40:21.056Z,65.17
2022-11-15T15:42:53.587Z,66.00
2022-11-15T15:45:28.259Z,65.67
2022-11-15T15:48:00.735Z,65.43
2022-11-15T15:50:35.685Z,66.26
2022-11-15T15:53:08.997Z,65.95
2022-11-15T15:55:41.882Z,66.32
2022-11-15T15:58:14.349Z,66.50
2022-11-15T16:00:46.853Z,66.56
2022-11-15T16:03:19.400Z,66.25
2022-11-15T16:05:52.579Z,66.51
2022-11-15T16:08:31.917Z,66.84
2022-11-15T16:11:11.135Z,67.74
2022-11-15T16:13:43.621Z,68.18
2022-11-15T16:16:22.778Z,69.23
2022-11-15T16:18:55.407Z,70.00
2022-11-15T16:21:28.848Z,70.69
2022-11-15T16:24:02.331Z,71.65
2022-11-15T16:26:37.574Z,72.09
2022-11-15T16:29:11.304Z,72.82
2022-11-15T16:31:43.764Z,73.83
2022-11-15T16:34:16.229Z,74.29
2022-11-15T16:36:49.109Z,74.29
2022-11-15T16:39:23.392Z,74.96
2022-11-15T16:41:55.937Z,76.25
2022-11-15T16:44:29.235Z,77.13
2022-11-15T16:47:02.361Z,76.99
2022-11-15T16:49:34.865Z,77.51
2022-11-15T16:52:07.335Z,77.50
2022-11-15T16:54:39.855Z,78.26
2022-11-15T16:57:12.352Z,78.50
2022-11-15T16:59:44.818Z,79.17
2022-11-15T17:02:17.337Z,79.07
2022-11-15T17:04:49.859Z,79.35
2022-11-15T17:07:22.483Z,79.82
2022-11-15T17:09:55.065Z,80.48
2022-11-15T17:12:27.695Z,81.01
2022-11-15T17:15:00.256Z,81.70
2022-11-15T17:17:33.148Z,81.96
2022-11-15T17:20:10.009Z,82.31
2022-11-15T17:22:42.719Z,82.79
2022-11-15T17:25:15.367Z,82.22
2022-11-15T17:27:48.349Z,83.04
2022-11-15T17:30:20.837Z,82.48
2022-11-15T17:32:53.398Z,83.02
2022-11-15T17:35:26.062Z,82.91
2022-11-15T17:37:58.577Z,83.02
2022-11-15T17:40:31.197Z,82.55
2022-11-15T17:43:06.285Z,83.07
2022-11-15T17:45:42.244Z,83.57
2022-11-15T17:48:14.638Z,83.50
2022-11-15T17:51:04.752Z,83.47
2022-11-15T17:53:40.511Z,84.53
2022-11-15T17:56:19.762Z,84.05
2022-11-15T17:58:58.998Z,84.40
2022-11-15T18:01:34.741Z,84.91
2022-11-15T18:04:10.014Z,84.44
2022-11-15T18:06:43.023Z,84.72
2022-11-15T18:09:15.504Z,84.98
2022-11-15T18:11:51.509Z,84.71
2022-11-15T18:14:26.029Z,85.42
2022-11-15T18:16:58.522Z,85.11
2022-11-15T18:19:31.021Z,85.91
2022-11-15T18:22:05.458Z,85.07
2022-11-15T18:24:42.848Z,85.24
2022-11-15T18:27:15.364Z,85.18
2022-11-15T18:29:47.867Z,85.25
2022-11-15T18:32:20.377Z,85.51
2022-11-15T18:34:53.543Z,85.66
2022-11-15T18:37:26.105Z,86.24
2022-11-15T18:39:58.556Z,85.97
2022-11-15T18:42:32.977Z,86.75
2022-11-15T18:45:06.421Z,86.43
2022-11-15T18:47:38.897Z,85.96
2022-11-15T18:50:11.403Z,85.98
2022-11-15T18:52:43.874Z,86.31
2022-11-15T18:55:16.370Z,86.34
2022-11-15T18:57:48.887Z,85.98
2022-11-15T19:00:21.437Z,86.04
2022-11-15T19:02:54.798Z,86.23
2022-11-15T19:05:27.381Z,86.12
2022-11-15T19:07:59.848Z,85.72
2022-11-15T19:10:34.586Z,86.55
2022-11-15T19:13:07.040Z,85.83
2022-11-15T19:15:39.546Z,86.14
2022-11-15T19:18:12.034Z,85.82
2022-11-15T19:20:44.581Z,86.04
2022-11-15T19:23:17.197Z,86.43
2022-11-15T19:26:01.592Z,87.02
2022-11-15T19:28:34.345Z,87.42
2022-11-15T19:31:15.875Z,87.45
2022-11-15T19:33:48.471Z,87.69
2022-11-15T19:36:32.457Z,87.84
2022-11-15T19:39:10.018Z,87.83
2022-11-15T19:41:44.331Z,88.15
2022-11-15T19:44:18.233Z,88.04
2022-11-15T19:46:50.817Z,87.77
2022-11-15T19:49:23.503Z,87.99
2022-11-15T19:51:56.380Z,88.08
2022-11-15T19:54:28.918Z,88.12
2022-11-15T19:57:01.482Z,88.21
2022-11-15T19:59:34.028Z,88.26
2022-11-15T20:02:07.250Z,88.57
2022-11-15T20:04:39.911Z,88.17
2022-11-15T20:07:12.562Z,88.35
2022-11-15T20:09:45.228Z,87.83
2022-11-15T20:12:17.921Z,88.04
2022-11-15T20:14:50.495Z,87.81
2022-11-15T20:17:23.893Z,88.09
2022-11-15T20:19:56.513Z,88.11
2022-11-15T20:22:29.072Z,88.37
2022-11-15T20:25:01.673Z,88.40
2022-11-15T20:27:34.250Z,88.46
2022-11-15T20:30:07.880Z,88.08
2022-11-15T20:32:40.478Z,87.95
2022-11-15T20:35:13.191Z,88.10
2022-11-15T20:37:45.775Z,88.09
2022-11-15T20:40:18.506Z,88.42
2022-11-15T20:42:54.311Z,88.07
2022-11-15T20:45:26.978Z,88.45
2022-11-15T20:47:59.553Z,87.76
2022-11-15T20:50:47.442Z,87.63
2022-11-15T20:53:20.368Z,88.19
2022-11-15T20:55:54.918Z,88.00
2022-11-15T20:58:30.175Z,87.95
2022-11-15T21:01:05.712Z,87.80
2022-11-15T21:03:38.459Z,88.09
2022-11-15T21:06:11.883Z,87.73
2022-11-15T21:09:03.189Z,87.37
2022-11-15T21:11:54.712Z,87.73
2022-11-15T21:14:27.293Z,87.55
2022-11-15T21:16:59.937Z,87.41
2022-11-15T21:19:35.792Z,87.17
2022-11-15T21:22:14.005Z,86.73
2022-11-15T21:24:46.750Z,87.26
2022-11-15T21:27:19.491Z,86.59
2022-11-15T21:29:52.156Z,87.14
2022-11-15T21:32:24.796Z,86.93
2022-11-15T21:34:57.420Z,86.95
2022-11-15T21:37:29.908Z,86.96
2022-11-15T21:40:02.973Z,86.93
2022-11-15T21:42:35.509Z,87.09
2022-11-15T21:45:08.716Z,87.02
2022-11-15T21:47:46.054Z,87.66
2022-11-15T21:50:19.698Z,87.50
2022-11-15T21:52:55.484Z,87.31
2022-11-15T21:55:29.965Z,87.55
2022-11-15T21:58:02.723Z,87.66
2022-11-15T22:00:54.702Z,87.19
2022-11-15T22:03:27.356Z,87.28
2022-11-15T22:06:07.540Z,87.14
2022-11-15T22:08:40.522Z,86.83
2022-11-15T22:11:14.553Z,87.98
2022-11-15T22:13:47.416Z,87.17
2022-11-15T22:16:22.371Z,87.35
2022-11-15T22:19:03.421Z,87.66
2022-11-15T22:21:40.173Z,87.64
2022-11-15T22:24:18.297Z,87.67
2022-11-15T22:26:56.963Z,87.54
2022-11-15T22:29:32.071Z,88.19
2022-11-15T22:32:11.607Z,87.85
2022-11-15T22:34:48.568Z,87.90
2022-11-15T22:37:25.770Z,88.31
2022-11-15T22:40:00.430Z,88.00
2022-11-15T22:42:35.104Z,88.48
2022-11-15T22:45:08.250Z,87.79
2022-11-15T22:47:44.149Z,88.24
2022-11-15T22:50:17.239Z,87.90
2022-11-15T22:52:55.671Z,88.08
2022-11-15T22:55:32.874Z,88.63
2022-11-15T22:58:11.592Z,88.27
2022-11-15T23:00:44.438Z,87.93
2022-11-15T23:03:18.042Z,88.19
2022-11-15T23:05:51.646Z,88.37
2022-11-15T23:08:24.278Z,88.16
2022-11-15T23:11:19.840Z,88.14
2022-11-15T23:13:53.689Z,88.14
2022-11-15T23:19:20.749Z,88.43
2022-11-15T23:22:12.122Z,88.65
2022-11-15T23:24:44.671Z,88.28
2022-11-15T23:27:20.095Z,88.33
2022-11-15T23:30:20.388Z,88.14
2022-11-15T23:33:11.435Z,88.25
2022-11-15T23:35:56.844Z,88.59
2022-11-15T23:38:29.777Z,88.14
2022-11-15T23:41:04.483Z,88.56
2022-11-15T23:43:37.151Z,88.93
2022-11-15T23:46:09.845Z,88.70
2022-11-15T23:48:42.537Z,88.22
2022-11-15T23:51:15.137Z,88.13
2022-11-15T23:53:47.811Z,88.50
2022-11-15T23:56:22.005Z,88.53
2022-11-15T23:58:54.677Z,88.45
